Time;durP1;ratioP1;P1;durP2;ratioP2;P2;SDS_P1;SDS_P2;PMS_P1;PMS_P2;Temp;Humidity;BMP_temperature;BMP_pressure;BME280_temperature;BME280_humidity;BME280_pressure;Samples;Min_cycle;Max_cycle;Signal;HPM_P1;HPM_P2
2023/03/24 00:02:52;;;;;;;6.20;3.20;;;;;;;10.39;77.01;99807.27;105483;1253;69096;-69
2023/03/24 00:06:08;;;;;;;6.00;3.40;;;;;;;10.43;77.13;99811.09;105568;1255;69526;-71
2023/03/24 00:09:20;;;;;;;12.40;5.30;;;;;;;10.50;77.35;99809.76;105522;1253;73887;-69
2023/03/24 00:12:37;;;;;;;7.40;3.60;;;;;;;10.59;77.27;99814.02;105526;1253;82932;-70
2023/03/24 00:16:02;;;;;;;;;;;;;;;;;;;;;
2023/03/24 00:19:13;;;;;;;4.50;2.90;;;;;;;10.75;76.94;99810.66;105438;1253;69206;-70
2023/03/24 00:22:20;;;;;;;5.40;3.10;;;;;;;10.80;77.12;99803.96;105520;1255;69190;-69
2023/03/24 00:25:22;;;;;;;;;;;;;;;;;;;;;
2023/03/24 00:28:35;;;;;;;9.20;4.10;;;;;;;10.90;77.24;99799.61;105285;1258;83924;-69
2023/03/24 00:31:47;;;;;;;7.30;4.00;;;;;;;10.93;76.92;99798.62;105134;1254;73788;-72
2023/03/24 00:34:45;;;;;;;7.10;4.40;;;;;;;10.93;76.92;99792.50;105385;1258;69192;-69
2023/03/24 00:37:40;;;;;;;5.40;3.50;;;;;;;10.92;76.95;99787.98;105214;1256;69197;-71
2023/03/24 00:40:52;;;;;;;7.40;3.60;;;;;;;10.92;76.73;99780.33;105235;1258;74458;-69
2023/03/24 00:43:49;;;;;;;6.10;3.70;;;;;;;10.90;76.70;99772.56;105171;1258;83142;-71
2023/03/24 00:46:44;;;;;;;5.50;3.40;;;;;;;10.85;76.49;99765.29;105325;1255;74159;-70
2023/03/24 00:49:54;;;;;;;8.40;3.60;;;;;;;10.77;76.46;99765.99;105391;1258;69280;-71
2023/03/24 00:52:55;;;;;;;7.90;4.50;;;;;;;10.69;76.78;99768.14;105258;1256;69455;-72
2023/03/24 00:56:01;;;;;;;7.80;4.30;;;;;;;10.66;76.95;99768.30;105398;1256;73147;-73
2023/03/24 00:59:13;;;;;;;7.00;4.00;;;;;;;10.62;76.97;99769.50;105291;1257;83829;-72
2023/03/24 01:02:07;;;;;;;6.50;4.20;;;;;;;10.58;77.10;99763.95;105299;1256;72811;-70
2023/03/24 01:05:13;;;;;;;9.30;5.60;;;;;;;10.55;77.16;99756.38;105528;1258;69213;-70
2023/03/24 01:08:12;;;;;;;8.90;5.00;;;;;;;10.56;77.16;99753.21;105219;1256;69251;-71
2023/03/24 01:11:19;;;;;;;8.30;3.60;;;;;;;10.53;77.10;99751.61;105401;1258;74030;-71
2023/03/24 01:14:16;;;;;;;;;;;;;;;;;;;;;
2023/03/24 01:17:20;;;;;;;8.00;4.40;;;;;;;10.48;77.29;99748.33;105394;1256;72524;-72
2023/03/24 01:20:31;;;;;;;23.30;12.40;;;;;;;10.40;77.50;99748.52;105161;1255;69161;-72
2023/03/24 01:23:30;;;;;;;61.80;26.30;;;;;;;10.31;77.44;99747.73;105440;1258;69096;-71
2023/03/24 01:26:47;;;;;;;44.50;17.60;;;;;;;10.25;77.78;99745.34;105368;1255;72565;-72
2023/03/24 01:29:56;;;;;;;;;;;;;;;;;;;;;
2023/03/24 01:33:16;;;;;;;12.40;6.30;;;;;;;10.19;78.09;99739.66;105584;1255;73336;-71
2023/03/24 01:36:35;;;;;;;;;;;;;;;;;;;;;
2023/03/24 01:39:31;;;;;;;14.40;7.50;;;;;;;10.18;78.22;99728.75;105380;1255;69193;-69
2023/03/24 01:42:43;;;;;;;7.40;4.30;;;;;;;10.19;78.31;99725.02;105529;1255;73140;-70
2023/03/24 01:46:06;;;;;;;10.10;5.70;;;;;;;10.18;78.46;99725.42;105380;1258;83487;-72
2023/03/24 01:49:09;;;;;;;8.00;4.50;;;;;;;10.15;78.64;99731.86;104928;1260;73783;-72
2023/03/24 01:52:20;;;;;;;6.90;5.00;;;;;;;10.16;78.97;99733.75;104481;1268;69379;-73
2023/03/24 01:55:17;;;;;;;7.80;4.90;;;;;;;10.18;79.29;99728.39;104498;1270;69289;-72
2023/03/24 01:58:35;;;;;;;6.60;4.40;;;;;;;10.25;79.32;99721.61;104523;1270;74241;-71
2023/03/24 02:01:52;;;;;;;6.90;3.90;;;;;;;10.32;79.19;99722.54;104564;1270;83408;-70
2023/03/24 02:05:08;;;;;;;5.70;3.90;;;;;;;10.38;79.23;99717.55;104467;1265;73832;-70
2023/03/24 02:08:28;;;;;;;6.10;4.00;;;;;;;10.41;79.26;99712.66;104463;1270;69228;-70
2023/03/24 02:11:45;;;;;;;7.80;4.40;;;;;;;10.47;79.42;99705.39;104344;1271;69268;-69
2023/03/24 02:14:51;;;;;;;8.50;4.30;;;;;;;10.53;79.60;99701.98;104438;1273;73143;-70
2023/03/24 02:18:30;;;;;;;7.10;4.30;;;;;;;10.57;79.64;99695.31;104411;1273;83507;-70
2023/03/24 02:21:54;;;;;;;8.20;4.90;;;;;;;10.61;79.53;99689.91;103987;1275;72922;-73
2023/03/24 02:25:54;;;;;;;6.60;4.20;;;;;;;10.64;79.54;99683.98;103404;1284;69441;-70
2023/03/24 02:29:27;;;;;;;6.50;4.00;;;;;;;10.67;79.29;99679.80;102382;1286;69205;-71
2023/03/24 02:32:48;;;;;;;8.40;3.90;;;;;;;10.73;79.38;99678.30;101990;1299;74239;-72
2023/03/24 02:35:55;;;;;;;5.20;3.80;;;;;;;10.77;79.40;99678.97;101801;1298;81542;-70
2023/03/24 02:39:42;;;;;;;7.00;4.20;;;;;;;10.80;79.33;99674.14;101558;1308;74135;-70
2023/03/24 02:43:06;;;;;;;7.60;4.20;;;;;;;10.78;79.13;99669.16;102243;1292;600242;-74
2023/03/24 02:46:13;;;;;;;7.70;4.00;;;;;;;10.70;79.33;99665.50;103802;1275;69326;-70
2023/03/24 02:49:43;;;;;;;10.60;5.50;;;;;;;10.70;79.43;99658.02;103077;1287;69243;-74
2023/03/24 02:52:52;;;;;;;7.00;4.30;;;;;;;10.68;79.27;99651.96;102399;1293;70554;-73
2023/03/24 02:55:57;;;;;;;14.00;8.20;;;;;;;10.67;79.31;99652.73;98467;1295;5446874;-70
2023/03/24 02:58:51;;;;;;;5.80;4.20;;;;;;;10.64;79.22;99646.42;102112;1300;69288;-72
2023/03/24 03:01:52;;;;;;;15.30;10.00;;;;;;;10.56;79.05;99645.77;102226;1294;69446;-71
2023/03/24 03:05:39;;;;;;;13.50;8.00;;;;;;;10.49;79.33;99642.25;102110;1295;73067;-72
2023/03/24 03:08:26;;;;;;;9.10;5.00;;;;;;;10.45;79.67;99644.17;102637;1291;82641;-69
2023/03/24 03:11:21;;;;;;;7.20;5.00;;;;;;;10.44;79.76;99640.56;102764;1286;73959;-72
2023/03/24 03:14:15;;;;;;;6.70;4.60;;;;;;;10.43;80.02;99640.45;102438;1294;69433;-70
2023/03/24 03:17:24;;;;;;;5.60;3.60;;;;;;;10.50;80.09;99636.45;102085;1296;69408;-70
2023/03/24 03:20:19;;;;;;;7.30;3.60;;;;;;;10.57;80.25;99634.35;102272;1297;72721;-72
2023/03/24 03:23:27;;;;;;;5.60;3.60;;;;;;;10.65;80.16;99634.67;102402;1290;83603;-71
2023/03/24 03:26:17;;;;;;;7.20;4.00;;;;;;;10.71;80.52;99636.10;103221;1276;72806;-72
2023/03/24 03:29:39;;;;;;;;;;;;;;;;;;;;;
2023/03/24 03:32:38;;;;;;;5.60;3.90;;;;;;;10.78;80.56;99634.89;103995;1272;69371;-71
2023/03/24 03:35:52;;;;;;;6.30;4.00;;;;;;;10.80;80.72;99631.66;104256;1276;72637;-68
2023/03/24 03:39:14;;;;;;;5.10;3.80;;;;;;;10.80;80.70;99637.08;104728;1268;83433;-67
2023/03/24 03:42:12;;;;;;;5.90;3.60;;;;;;;10.82;80.70;99635.75;104221;1272;72765;-69
2023/03/24 03:45:12;;;;;;;6.40;4.20;;;;;;;10.80;80.92;99632.86;104128;1270;69158;-70
2023/03/24 03:48:30;;;;;;;6.20;3.80;;;;;;;10.78;80.98;99634.20;104109;1271;69329;-67
2023/03/24 03:51:33;;;;;;;;;;;;;;;;;;;;;
2023/03/24 03:54:43;;;;;;;6.90;3.80;;;;;;;10.73;81.25;99629.02;104112;1268;82749;-70
2023/03/24 03:57:43;;;;;;;6.30;4.50;;;;;;;10.69;81.62;99626.06;104534;1267;74287;-69
2023/03/24 04:00:59;;;;;;;8.90;5.20;;;;;;;10.64;81.59;99622.64;104530;1267;69277;-65
2023/03/24 04:04:46;;;;;;;6.50;4.00;;;;;;;10.60;81.68;99623.19;104596;1271;69184;-68
2023/03/24 04:08:52;;;;;;;6.60;3.80;;;;;;;10.59;81.89;99617.86;104572;1268;73537;-66
2023/03/24 04:12:13;;;;;;;6.20;4.10;;;;;;;10.56;82.12;99609.42;104267;1271;84144;-68
2023/03/24 04:16:06;;;;;;;6.20;4.10;;;;;;;10.55;82.36;99599.33;104212;1275;72721;-67
2023/03/24 04:19:41;;;;;;;5.20;3.90;;;;;;;10.54;82.46;99596.59;103892;1275;69239;-66
2023/03/24 04:22:46;;;;;;;7.10;4.50;;;;;;;10.55;82.64;99592.89;103183;1283;69314;-68
2023/03/24 04:26:15;;;;;;;6.00;4.10;;;;;;;10.53;82.72;99592.63;103247;1283;73222;-68
2023/03/24 04:29:33;;;;;;;7.10;4.10;;;;;;;10.52;82.81;99590.06;102458;1292;84298;-66
2023/03/24 04:33:09;;;;;;;7.20;4.30;;;;;;;10.51;82.94;99582.96;102367;1289;74316;-68
2023/03/24 04:36:26;;;;;;;6.40;4.00;;;;;;;10.50;82.73;99577.61;101771;1298;70936;-66
2023/03/24 04:39:38;;;;;;;6.60;4.10;;;;;;;10.48;82.97;99572.80;101883;1295;69285;-66
2023/03/24 04:42:51;;;;;;;7.30;3.80;;;;;;;10.48;83.16;99574.54;101845;1300;72417;-70
2023/03/24 04:46:06;;;;;;;;;;;;;;;;;;;;;
2023/03/24 04:49:05;;;;;;;;;;;;;;;;;;;;;
2023/03/24 04:52:10;;;;;;;5.90;4.50;;;;;;;10.45;83.53;99562.48;102056;1291;69196;-69
2023/03/24 04:55:09;;;;;;;;;;;;;;;;;;;;;
2023/03/24 04:58:25;;;;;;;6.20;4.40;;;;;;;10.38;83.65;99558.27;103918;1276;72865;-69
2023/03/24 05:01:24;;;;;;;7.00;3.70;;;;;;;10.41;83.66;99555.48;103690;1280;83993;-68
2023/03/24 05:04:52;;;;;;;;;;;;;;;;;;;;;
2023/03/24 05:08:18;;;;;;;7.20;4.80;;;;;;;10.47;83.92;99554.52;104504;1268;69270;-67
2023/03/24 05:11:34;;;;;;;5.40;4.10;;;;;;;10.50;83.91;99556.09;104458;1270;69152;-67
2023/03/24 05:14:47;;;;;;;6.10;4.20;;;;;;;10.53;84.01;99559.45;105127;1262;72281;-72
2023/03/24 05:18:05;;;;;;;6.00;4.90;;;;;;;10.57;84.07;99560.84;105141;1260;83209;-66
2023/03/24 05:20:56;;;;;;;;;;;;;;;10.60;84.13;99561.73;105082;1260;72354;-69
2023/03/24 05:23:39;;;;;;;6.80;4.70;;;;;;;10.60;83.96;99563.13;105021;1258;69182;-68
2023/03/24 05:26:51;;;;;;;6.90;4.50;;;;;;;10.61;84.09;99573.02;105133;1259;69199;-71
2023/03/24 05:29:37;;;;;;;5.90;4.20;;;;;;;10.67;83.98;99567.65;105196;1259;73311;-65
2023/03/24 05:32:15;;;;;;;6.40;4.20;;;;;;;10.71;83.85;99570.41;105078;1260;81974;-67
2023/03/24 05:34:47;;;;;;;7.80;4.90;;;;;;;10.75;83.93;99572.15;105668;1259;73720;-67
2023/03/24 05:37:26;;;;;;;6.60;4.30;;;;;;;10.78;83.90;99572.67;105026;1260;69179;-66
2023/03/24 05:40:05;;;;;;;6.60;4.20;;;;;;;10.83;84.02;99569.79;105058;1263;69144;-68
2023/03/24 05:43:07;;;;;;;5.70;4.40;;;;;;;10.87;84.18;99570.48;104963;1259;73020;-65
2023/03/24 05:45:54;;;;;;;7.90;4.60;;;;;;;10.91;84.27;99575.15;105127;1260;82488;-65
2023/03/24 05:48:36;;;;;;;5.60;3.80;;;;;;;10.95;84.43;99574.26;105182;1265;73671;-66
2023/03/24 05:51:21;;;;;;;7.20;3.80;;;;;;;11.00;84.51;99573.50;105077;1263;69265;-66
2023/03/24 05:54:22;;;;;;;7.50;3.90;;;;;;;11.02;84.46;99573.86;105119;1262;69218;-66
2023/03/24 05:57:29;;;;;;;7.50;4.20;;;;;;;11.02;84.80;99570.06;105063;1260;73281;-66
2023/03/24 06:00:43;;;;;;;6.80;4.10;;;;;;;11.01;85.10;99567.48;105117;1262;83471;-63
2023/03/24 06:03:57;;;;;;;5.10;3.60;;;;;;;11.02;85.37;99571.10;105192;1262;72861;-63
2023/03/24 06:07:17;;;;;;;5.10;3.60;;;;;;;11.00;85.44;99568.04;104621;1261;69265;-64
2023/03/24 06:10:37;;;;;;;6.40;4.10;;;;;;;11.00;85.75;99560.89;105144;1262;69196;-62
2023/03/24 06:14:02;;;;;;;5.50;4.00;;;;;;;11.00;86.08;99563.84;105102;1260;73306;-61
2023/03/24 06:17:03;;;;;;;;;;;;;;;;;;;;;
2023/03/24 06:20:38;;;;;;;6.10;3.90;;;;;;;11.06;86.53;99562.31;105074;1259;73732;-61
2023/03/24 06:23:56;;;;;;;5.80;4.30;;;;;;;11.11;86.41;99557.34;105041;1260;69215;-61
2023/03/24 06:27:02;;;;;;;7.20;4.20;;;;;;;11.15;86.68;99551.14;105020;1259;69241;-61
2023/03/24 06:33:25;;;;;;;6.60;3.90;;;;;;;11.34;87.25;99537.93;105050;1260;84354;-61
2023/03/24 06:36:52;;;;;;;9.80;4.80;;;;;;;11.45;87.28;99540.64;105019;1259;72083;-62
2023/03/24 06:39:49;;;;;;;6.50;4.00;;;;;;;11.57;87.46;99536.16;104976;1259;69219;-63
2023/03/24 06:42:48;;;;;;;5.80;4.20;;;;;;;11.65;87.59;99535.37;104985;1260;69759;-63
2023/03/24 06:45:40;;;;;;;6.40;4.30;;;;;;;11.72;87.50;99529.55;105078;1260;73279;-64
2023/03/24 06:49:01;;;;;;;4.50;3.60;;;;;;;11.79;87.25;99530.89;105135;1262;83592;-66
2023/03/24 06:51:48;;;;;;;6.30;4.30;;;;;;;11.84;87.08;99531.67;105137;1257;73740;-66
2023/03/24 06:54:42;;;;;;;6.00;4.40;;;;;;;11.89;87.23;99536.19;105600;1259;69174;-66
2023/03/24 06:57:26;;;;;;;5.20;3.50;;;;;;;11.92;87.01;99538.30;105518;1259;69202;-67
2023/03/24 07:00:25;;;;;;;6.10;4.20;;;;;;;11.93;86.77;99536.11;105457;1253;73414;-66
2023/03/24 07:03:14;;;;;;;5.10;4.30;;;;;;;11.91;86.94;99535.86;105560;1257;82608;-66
2023/03/24 07:06:15;;;;;;;6.10;4.20;;;;;;;11.88;87.22;99529.54;105396;1256;73796;-66
2023/03/24 07:08:58;;;;;;;6.20;4.40;;;;;;;11.89;87.08;99526.88;105289;1259;69218;-66
2023/03/24 07:11:41;;;;;;;5.30;3.90;;;;;;;11.91;87.02;99523.27;105299;1259;69271;-66
2023/03/24 07:14:28;;;;;;;7.40;3.70;;;;;;;11.91;87.04;99522.23;105668;1257;73455;-67
2023/03/24 07:17:14;;;;;;;7.00;4.00;;;;;;;11.91;87.38;99520.27;105481;1259;83146;-67
2023/03/24 07:20:13;;;;;;;5.60;3.70;;;;;;;11.94;87.59;99516.59;105363;1259;73972;-67
2023/03/24 07:22:51;;;;;;;8.10;3.90;;;;;;;12.01;87.71;99509.23;105520;1257;69166;-68
2023/03/24 07:25:59;;;;;;;4.80;3.50;;;;;;;12.06;87.46;99502.45;105347;1259;69215;-67
2023/03/24 07:28:55;;;;;;;5.20;4.00;;;;;;;12.13;87.91;99500.50;105505;1259;73337;-68
2023/03/24 07:31:48;;;;;;;;;;;;;;;;;;;;;
2023/03/24 07:34:26;;;;;;;4.50;3.70;;;;;;;12.29;87.81;99499.70;105333;1256;73929;-67
2023/03/24 07:37:07;;;;;;;4.50;3.40;;;;;;;12.42;87.44;99499.32;105465;1254;69121;-68
2023/03/24 07:39:39;;;;;;;6.70;3.50;;;;;;;12.52;87.49;99493.45;105503;1256;69033;-68
2023/03/24 07:42:19;;;;;;;4.40;3.20;;;;;;;12.62;87.18;99487.98;105443;1259;72336;-69
2023/03/24 07:45:13;;;;;;;6.00;3.70;;;;;;;12.71;87.02;99492.32;105455;1257;81726;-69
2023/03/24 07:47:48;;;;;;;4.90;3.40;;;;;;;12.79;86.83;99493.61;105395;1257;73727;-68
2023/03/24 07:50:26;;;;;;;6.60;3.70;;;;;;;12.85;86.79;99495.83;105416;1255;69227;-69
2023/03/24 07:53:02;;;;;;;4.40;3.30;;;;;;;12.90;86.43;99491.32;105567;1259;69844;-69
2023/03/24 07:55:39;;;;;;;4.60;3.00;;;;;;;12.95;86.44;99487.34;105630;1255;74189;-69
2023/03/24 07:58:27;;;;;;;4.50;3.40;;;;;;;13.05;86.13;99480.96;105535;1256;82798;-69
2023/03/24 08:01:12;;;;;;;4.00;2.90;;;;;;;13.14;85.75;99478.45;105468;1259;73792;-67
2023/03/24 08:03:53;;;;;;;4.90;3.50;;;;;;;13.20;85.27;99478.98;105454;1257;69081;-69
2023/03/24 08:06:49;;;;;;;6.60;4.20;;;;;;;13.23;85.37;99472.81;105358;1259;69138;-69
2023/03/24 08:09:26;;;;;;;9.10;4.30;;;;;;;13.29;85.37;99475.80;105540;1258;73316;-71
2023/03/24 08:12:00;;;;;;;8.60;5.40;;;;;;;13.37;85.20;99469.70;105601;1257;83824;-70
2023/03/24 08:14:47;;;;;;;12.20;7.10;;;;;;;13.45;84.77;99471.99;105532;1254;73644;-69
2023/03/24 08:17:20;;;;;;;8.40;4.90;;;;;;;13.54;84.82;99464.53;105350;1256;69131;-69
2023/03/24 08:19:58;;;;;;;7.20;3.90;;;;;;;13.71;84.34;99461.73;105621;1258;69209;-69
2023/03/24 08:22:33;;;;;;;6.30;3.20;;;;;;;13.86;83.94;99458.64;105241;1259;73192;-69
2023/03/24 08:25:05;;;;;;;5.00;3.30;;;;;;;14.01;83.76;99453.09;105654;1258;82836;-69
2023/03/24 08:27:42;;;;;;;6.00;3.60;;;;;;;14.19;83.60;99449.25;105793;1254;72769;-69
2023/03/24 08:30:24;;;;;;;7.50;2.90;;;;;;;14.36;83.33;99442.86;105522;1258;69227;-70
2023/03/24 08:32:58;;;;;;;3.50;2.70;;;;;;;14.49;83.12;99438.63;105574;1259;69097;-72
2023/03/24 08:35:45;;;;;;;5.60;3.00;;;;;;;14.65;82.64;99430.14;105717;1258;74230;-66
2023/03/24 08:38:21;;;;;;;5.70;2.80;;;;;;;14.78;82.39;99423.41;105497;1257;82763;-68
2023/03/24 08:40:51;;;;;;;4.50;2.90;;;;;;;14.95;82.13;99418.89;105534;1256;72880;-67
2023/03/24 08:43:27;;;;;;;3.50;2.60;;;;;;;15.10;81.69;99417.64;105587;1259;69210;-67
2023/03/24 08:46:00;;;;;;;4.50;2.80;;;;;;;15.23;81.07;99415.66;105484;1259;69202;-66
2023/03/24 08:48:39;;;;;;;5.30;2.80;;;;;;;15.31;80.77;99409.97;105444;1258;72784;-66
2023/03/24 08:51:13;;;;;;;4.40;2.80;;;;;;;15.43;80.68;99415.82;105405;1257;83847;-65
2023/03/24 08:53:47;;;;;;;5.50;2.90;;;;;;;15.55;80.40;99415.11;105442;1258;72955;-71
2023/03/24 08:56:21;;;;;;;5.50;3.30;;;;;;;15.63;79.96;99413.79;105441;1257;69094;-63
2023/03/24 08:58:55;;;;;;;6.30;3.20;;;;;;;15.67;79.49;99411.77;105355;1259;69210;-67
2023/03/24 09:01:32;;;;;;;4.30;3.00;;;;;;;15.66;79.28;99409.20;105361;1257;74033;-69
2023/03/24 09:04:02;;;;;;;6.00;2.80;;;;;;;15.66;79.06;99397.59;105347;1258;83279;-65
2023/03/24 09:06:36;;;;;;;4.90;3.00;;;;;;;15.66;78.93;99400.71;105302;1259;71841;-62
2023/03/24 09:09:08;;;;;;;3.70;2.70;;;;;;;15.66;78.56;99393.67;105415;1256;69143;-62
2023/03/24 09:11:39;;;;;;;4.80;2.90;;;;;;;15.64;78.46;99388.71;105322;1259;69199;-63
2023/03/24 09:14:12;;;;;;;4.80;2.60;;;;;;;15.65;78.18;99390.28;105493;1257;73098;-63
2023/03/24 09:16:44;;;;;;;3.50;2.50;;;;;;;15.67;78.01;99391.90;105326;1259;83545;-65
2023/03/24 09:19:24;;;;;;;4.00;2.50;;;;;;;15.73;78.17;99388.27;105479;1254;72778;-69
2023/03/24 09:22:01;;;;;;;4.70;2.00;;;;;;;15.84;77.85;99385.68;105474;1259;69629;-70
2023/03/24 09:24:38;;;;;;;2.80;2.10;;;;;;;15.88;77.45;99385.36;105488;1253;69193;-70
2023/03/24 09:27:17;;;;;;;3.50;2.10;;;;;;;15.92;77.10;99380.21;105527;1253;74017;-70
2023/03/24 09:29:52;;;;;;;3.90;2.50;;;;;;;15.92;76.99;99379.63;105479;1258;83370;-69
2023/03/24 09:32:32;;;;;;;5.60;2.00;;;;;;;15.96;76.96;99376.48;105453;1254;73824;-69
2023/03/24 09:35:14;;;;;;;3.50;2.40;;;;;;;16.02;77.03;99372.83;105533;1258;69115;-72
2023/03/24 09:37:52;;;;;;;3.50;2.20;;;;;;;16.10;76.64;99371.10;105488;1257;69194;-72
2023/03/24 09:40:35;;;;;;;4.10;2.10;;;;;;;16.22;76.71;99371.34;105554;1258;74699;-72
2023/03/24 09:43:29;;;;;;;2.90;2.00;;;;;;;16.44;76.36;99361.40;105472;1258;82331;-64
2023/03/24 09:46:05;;;;;;;3.60;2.20;;;;;;;16.68;76.27;99360.71;105471;1259;72810;-60
2023/03/24 09:48:46;;;;;;;3.40;2.50;;;;;;;16.90;75.87;99357.22;105509;1254;69211;-61
2023/03/24 09:51:40;;;;;;;8.60;5.40;;;;;;;17.16;75.42;99356.04;105443;1259;69080;-62
2023/03/24 09:54:40;;;;;;;11.30;6.30;;;;;;;17.38;74.92;99351.75;105491;1259;74183;-60
2023/03/24 09:57:41;;;;;;;4.30;2.80;;;;;;;17.53;74.41;99343.64;105478;1258;82379;-62
2023/03/24 10:00:33;;;;;;;3.30;2.20;;;;;;;17.65;74.01;99346.35;105446;1259;73431;-60
2023/03/24 10:03:20;;;;;;;3.60;2.40;;;;;;;17.70;72.95;99344.39;105487;1254;69184;-59
2023/03/24 10:06:01;;;;;;;5.40;2.60;;;;;;;17.68;72.27;99341.16;105505;1254;69608;-61
2023/03/24 10:08:37;;;;;;;5.30;2.30;;;;;;;17.60;71.74;99341.14;105534;1259;74146;-60
2023/03/24 10:12:01;;;;;;;3.90;2.60;;;;;;;17.55;71.62;99335.41;105422;1259;83501;-63
2023/03/24 10:14:51;;;;;;;2.90;1.90;;;;;;;17.51;71.36;99325.27;105316;1254;73643;-62
2023/03/24 10:17:32;;;;;;;4.50;3.00;;;;;;;17.54;71.39;99329.64;105435;1254;69308;-65
2023/03/24 10:20:31;;;;;;;4.30;2.70;;;;;;;17.55;71.27;99330.08;105495;1259;69173;-59
2023/03/24 10:24:04;;;;;;;2.90;2.10;;;;;;;17.48;70.99;99333.48;105445;1260;74229;-61
2023/03/24 10:26:50;;;;;;;4.90;2.70;;;;;;;17.39;70.57;99326.94;105503;1259;83657;-61
2023/03/24 10:29:31;;;;;;;5.80;2.90;;;;;;;17.38;70.39;99317.89;105491;1260;73521;-60
2023/03/24 10:32:11;;;;;;;4.20;2.60;;;;;;;17.47;70.18;99324.22;105509;1259;69240;-63
2023/03/24 10:34:44;;;;;;;4.60;3.10;;;;;;;17.65;70.42;99325.16;105428;1260;69212;-62
2023/03/24 10:37:19;;;;;;;3.60;3.00;;;;;;;17.78;70.01;99323.95;105522;1260;73858;-60
2023/03/24 10:39:51;;;;;;;5.90;3.40;;;;;;;17.85;69.65;99322.52;105516;1260;83364;-60
2023/03/24 10:42:31;;;;;;;9.90;5.50;;;;;;;17.90;69.39;99314.84;105488;1259;72858;-60
2023/03/24 10:45:03;;;;;;;4.20;3.10;;;;;;;17.97;69.33;99310.67;105435;1256;69068;-62
2023/03/24 10:47:37;;;;;;;178.70;98.60;;;;;;;18.04;69.12;99308.85;105377;1259;69187;-62
2023/03/24 10:50:09;;;;;;;80.40;34.20;;;;;;;18.14;68.97;99306.21;105391;1259;73092;-60
2023/03/24 10:52:47;;;;;;;17.50;7.90;;;;;;;18.22;68.62;99308.86;105408;1259;82646;-60
2023/03/24 10:55:22;;;;;;;14.80;6.80;;;;;;;18.23;68.03;99310.73;105459;1257;73669;-63
2023/03/24 10:57:59;;;;;;;13.90;6.20;;;;;;;18.20;67.91;99307.14;105484;1258;69166;-62
2023/03/24 11:00:31;;;;;;;8.30;5.30;;;;;;;18.22;67.73;99307.43;105479;1260;69142;-60
2023/03/24 11:03:18;;;;;;;3.70;3.20;;;;;;;18.20;67.69;99307.06;105519;1260;73519;-59
2023/03/24 11:05:57;;;;;;;3.70;2.90;;;;;;;18.10;67.59;99315.19;105535;1258;82520;-60
2023/03/24 11:08:39;;;;;;;3.40;3.10;;;;;;;17.98;67.62;99321.40;105488;1254;73735;-59
2023/03/24 11:11:25;;;;;;;5.00;3.10;;;;;;;17.83;67.45;99321.55;105494;1257;69189;-60
2023/03/24 11:13:56;;;;;;;3.20;2.90;;;;;;;17.72;67.42;99322.09;105495;1259;69196;-59
2023/03/24 11:16:35;;;;;;;3.80;2.90;;;;;;;17.65;67.55;99322.93;105509;1257;73067;-62
2023/03/24 11:19:17;;;;;;;4.30;3.30;;;;;;;17.54;67.33;99332.11;105548;1254;82508;-63
2023/03/24 11:21:51;;;;;;;3.30;2.20;;;;;;;17.45;67.40;99334.95;105455;1254;72352;-60
2023/03/24 11:24:23;;;;;;;4.20;2.20;;;;;;;17.42;67.16;99328.71;105510;1254;69161;-64
2023/03/24 11:27:02;;;;;;;4.10;1.80;;;;;;;17.41;66.93;99336.20;105369;1255;69126;-63
2023/03/24 11:29:32;;;;;;;2.10;1.40;;;;;;;17.43;66.59;99335.30;105510;1259;73165;-62
2023/03/24 11:32:12;;;;;;;4.60;1.60;;;;;;;17.48;66.25;99333.84;105451;1260;83536;-61
2023/03/24 11:34:51;;;;;;;2.70;1.50;;;;;;;17.56;66.17;99338.09;105467;1255;73850;-60
2023/03/24 11:37:22;;;;;;;2.70;1.70;;;;;;;17.63;65.58;99337.16;105498;1254;69107;-62
2023/03/24 11:40:14;;;;;;;3.20;1.50;;;;;;;17.63;65.20;99324.98;105493;1258;69560;-62
2023/03/24 11:42:51;;;;;;;3.70;1.60;;;;;;;17.63;65.43;99327.88;105222;1262;73184;-60
2023/03/24 11:45:25;;;;;;;2.70;1.60;;;;;;;17.61;65.34;99332.91;105155;1260;83080;-60
2023/03/24 11:48:01;;;;;;;3.20;1.70;;;;;;;17.59;65.31;99327.23;105197;1256;73685;-62
2023/03/24 11:50:37;;;;;;;4.90;1.90;;;;;;;17.57;64.82;99332.86;105132;1265;69197;-59
2023/03/24 11:53:17;;;;;;;3.70;1.80;;;;;;;17.50;64.57;99332.60;105138;1263;69487;-62
2023/03/24 11:56:08;;;;;;;6.30;1.90;;;;;;;17.42;64.70;99330.44;105191;1262;73132;-62
2023/03/24 11:58:49;;;;;;;3.50;1.60;;;;;;;17.36;64.82;99328.11;105186;1262;83458;-62
2023/03/24 12:01:21;;;;;;;2.40;2.00;;;;;;;17.37;65.21;99329.98;105157;1261;73834;-63
2023/03/24 12:03:58;;;;;;;2.80;2.00;;;;;;;17.41;65.22;99326.27;105142;1263;69087;-61
2023/03/24 12:06:35;;;;;;;2.00;1.60;;;;;;;17.44;64.77;99332.08;105165;1262;69212;-59
2023/03/24 12:09:37;;;;;;;2.20;1.60;;;;;;;17.41;64.18;99317.61;105198;1263;73831;-62
2023/03/24 12:12:21;;;;;;;3.50;2.10;;;;;;;17.40;63.90;99320.71;105158;1257;82596;-58
2023/03/24 12:15:11;;;;;;;2.10;1.70;;;;;;;17.42;64.06;99316.31;105108;1260;73837;-61
2023/03/24 12:18:19;;;;;;;2.20;1.50;;;;;;;17.49;64.35;99309.05;105181;1262;69206;-63
2023/03/24 12:21:00;;;;;;;2.40;1.60;;;;;;;17.57;64.36;99310.60;105239;1258;69192;-59
2023/03/24 12:23:53;;;;;;;2.80;1.80;;;;;;;17.63;63.89;99310.34;105223;1260;73783;-59
2023/03/24 12:26:31;;;;;;;1.90;1.50;;;;;;;17.63;63.75;99306.66;105215;1261;83387;-61
2023/03/24 12:29:12;;;;;;;3.60;1.90;;;;;;;17.67;64.03;99302.77;105169;1257;73879;-62
2023/03/24 12:31:53;;;;;;;3.40;1.40;;;;;;;17.72;64.13;99298.77;105179;1258;69184;-60
2023/03/24 12:34:44;;;;;;;3.20;1.70;;;;;;;17.77;64.08;99303.85;105179;1260;69215;-61
2023/03/24 12:37:45;;;;;;;1.80;1.50;;;;;;;17.79;63.70;99303.91;105153;1260;72001;-61
2023/03/24 12:41:16;;;;;;;2.00;1.50;;;;;;;17.81;62.99;99302.31;105201;1260;83416;-61
2023/03/24 12:44:05;;;;;;;2.00;1.50;;;;;;;17.81;62.29;99301.00;104913;1265;73767;-62
2023/03/24 12:47:14;;;;;;;4.00;1.40;;;;;;;17.80;61.83;99307.84;104927;1266;69134;-62
2023/03/24 12:49:59;;;;;;;2.40;1.50;;;;;;;17.82;62.08;99297.97;104993;1265;69204;-61
2023/03/24 12:52:49;;;;;;;1.50;1.20;;;;;;;17.88;61.94;99291.30;105025;1263;73427;-60
2023/03/24 12:55:35;;;;;;;1.90;1.60;;;;;;;17.97;62.03;99287.73;104956;1266;83341;-61
2023/03/24 12:58:16;;;;;;;1.90;1.40;;;;;;;18.08;62.17;99286.23;104868;1264;72797;-59
2023/03/24 13:00:51;;;;;;;2.20;1.50;;;;;;;18.20;61.75;99280.08;104862;1266;69254;-60
2023/03/24 13:03:49;;;;;;;2.00;1.50;;;;;;;18.31;62.01;99270.59;104853;1273;69408;-60
2023/03/24 13:06:32;;;;;;;2.80;1.50;;;;;;;18.42;61.66;99265.75;104766;1274;73188;-60
2023/03/24 13:09:04;;;;;;;3.00;1.80;;;;;;;18.47;61.02;99259.46;104918;1273;83398;-58
2023/03/24 13:11:43;;;;;;;3.80;2.00;;;;;;;18.48;60.41;99259.93;104930;1264;72784;-61
2023/03/24 13:14:16;;;;;;;2.30;1.80;;;;;;;18.44;60.23;99258.66;105059;1261;69231;-61
2023/03/24 13:16:49;;;;;;;2.30;1.60;;;;;;;18.48;60.37;99255.82;105366;1254;69107;-60
2023/03/24 13:19:22;;;;;;;2.50;1.50;;;;;;;18.58;59.91;99258.58;105486;1258;74130;-59
2023/03/24 13:21:53;;;;;;;5.60;1.60;;;;;;;18.68;59.14;99256.59;105489;1258;83450;-58
2023/03/24 13:24:21;;;;;;;4.80;1.80;;;;;;;18.77;59.50;99247.31;105459;1260;72729;-61
2023/03/24 13:27:11;;;;;;;2.30;2.00;;;;;;;18.83;59.16;99242.94;105466;1258;69170;-64
2023/03/24 13:30:31;;;;;;;2.00;1.50;;;;;;;18.84;59.14;99247.23;105503;1258;69224;-59
2023/03/24 13:33:18;;;;;;;3.20;1.40;;;;;;;18.70;57.82;99242.92;104751;1274;73042;-60
2023/03/24 13:36:14;;;;;;;2.30;1.70;;;;;;;18.56;57.61;99238.19;104778;1269;83713;-59
2023/03/24 13:39:04;;;;;;;1.60;1.30;;;;;;;18.40;57.19;99235.49;104930;1261;73884;-59
2023/03/24 13:41:36;;;;;;;1.70;1.10;;;;;;;18.30;57.60;99226.70;104909;1265;69290;-62
2023/03/24 13:44:16;;;;;;;3.10;1.30;;;;;;;18.28;57.89;99223.86;104828;1265;69411;-60
2023/03/24 13:47:12;;;;;;;2.00;1.20;;;;;;;18.31;57.98;99220.21;104743;1265;74125;-59
2023/03/24 13:50:05;;;;;;;2.30;1.30;;;;;;;18.33;58.11;99217.37;104889;1265;82351;-59
2023/03/24 13:52:57;;;;;;;2.10;1.20;;;;;;;18.27;58.19;99218.95;104748;1266;73702;-59
2023/03/24 13:55:27;;;;;;;2.30;1.10;;;;;;;18.19;57.47;99223.97;104837;1267;69281;-62
2023/03/24 13:58:00;;;;;;;;;;;;;;;18.05;57.21;99223.56;104772;1265;69110;-59